NCAR-RAP Real-Time Weather Data

Output produced by METARs form (23 February 2020  01:59 UTC)
found at http://weather.rap.ucar.edu/surface/
 
KLEX 230154Z 20005KT 10SM CLR 03/M13 A3029 RMK AO2 SLP263 T00281128
KLEX 230054Z 18005KT 10SM CLR 04/M13 A3029 RMK AO2 SLP267 T00441133
KLEX 222354Z 20006KT 10SM CLR 05/M14 A3029 RMK AO2 SLP265 T00501139 10094 20050 56015
KLEX 222254Z 20009KT 10SM CLR 07/M12 A3030 RMK AO2 SLP267 T00721122
KLEX 222154Z 23010KT 10SM CLR 09/M13 A3032 RMK AO2 SLP274 T00891128
KLEX 222054Z VRB06KT 10SM CLR 09/M12 A3034 RMK AO2 SLP280 T00891117 56024
KLEX 221954Z 22009KT 10SM CLR 08/M11 A3035 RMK AO2 SLP285 T00781106
KLEX 221854Z 21009G17KT 10SM CLR 08/M10 A3037 RMK AO2 SLP293 T00781100
KLEX 221754Z 22010KT 10SM CLR 06/M10 A3041 RMK AO2 SLP304 T00561100 10056 21083 58023
KLEX 221654Z 23009KT 10SM CLR 03/M09 A3044 RMK AO2 SLP318 T00331094
KLEX 221554Z 22008KT 10SM CLR 02/M09 A3046 RMK AO2 SLP323 T00221089
KLEX 221454Z 22005KT 10SM CLR 00/M08 A3048 RMK AO2 SLP330 T00001078 53005
KLEX 221354Z 21005KT 10SM CLR M03/M09 A3048 RMK AO2 SLP332 T10281089
KLEX 221254Z 17006KT 10SM CLR M07/M11 A3046 RMK AO2 SLP327 T10721111
KLEX 221154Z 22003KT 10SM CLR M05/M11 A3046 RMK AO2 SLP326 T10501111 11039 21072 53012
KLEX 221054Z 17004KT 10SM CLR M04/M11 A3044 RMK AO2 SLP318 T10441111
KLEX 220954Z 20006KT 10SM CLR M05/M11 A3043 RMK AO2 SLP313 T10501111
KLEX 220854Z 19005KT 10SM CLR M05/M11 A3043 RMK AO2 SLP313 T10501106 56014
KLEX 220754Z 19005KT 10SM CLR M05/M11 A3044 RMK AO2 SLP317 T10501106
KLEX 220654Z 19004KT 10SM CLR M04/M11 A3045 RMK AO2 SLP323 T10441111
KLEX 220554Z 20004KT 10SM CLR M04/M12 A3047 RMK AO2 SLP328 T10391117 10000 21050 58015
KLEX 220454Z 19006KT 10SM CLR M04/M11 A3048 RMK AO2 SLP332 T10391111 400221094
KLEX 220354Z AUTO 19004KT 10SM CLR M04/M12 A3050 RMK AO2 SLP341 T10391117
KLEX 220254Z 19004KT 10SM CLR M03/M11 A3051 RMK AO2 SLP344 T10281111 56007
KLEX 220154Z 17003KT 10SM CLR M03/M12 A3052 RMK AO2 SLP346 T10281117
KLEX 220054Z 16003KT 10SM CLR M01/M13 A3053 RMK AO2 SLP351 T10111128
KLEX 212354Z 00000KT 10SM CLR 00/M13 A3054 RMK AO2 SLP353 T00001133 10022 21017 56006
KLEX 212254Z 00000KT 10SM CLR 01/M12 A3054 RMK AO2 SLP355 T00061122
KLEX 212154Z 00000KT 10SM CLR 02/M12 A3054 RMK AO2 SLP355 T00221117
KLEX 212054Z 00000KT 10SM CLR 02/M12 A3055 RMK AO2 SLP358 T00171122 56026
KLEX 211954Z 00000KT 10SM CLR 01/M11 A3057 RMK AO2 SLP362 T00111111
KLEX 211854Z VRB03KT 10SM CLR 00/M12 A3059 RMK AO2 SLP373 T00001117
KLEX 211754Z 16003KT 10SM CLR M02/M12 A3063 RMK AO2 SLP385 T10171117 11011 21094 58008
KLEX 211654Z 00000KT 10SM CLR M02/M12 A3065 RMK AO2 SLP393 T10221117
KLEX 211554Z 05006KT 10SM CLR M02/M12 A3065 RMK AO2 SLP392 T10221117
KLEX 211454Z 06006KT 10SM CLR M04/M11 A3065 RMK AO2 SLP393 T10391111 51016
KLEX 211354Z 04004KT 10SM CLR M07/M11 A3064 RMK AO2 SLP391 T10671106
KLEX 211254Z 00000KT 10SM CLR M08/M12 A3062 RMK AO2 SLP383 T10831122
KLEX 211154Z 34004KT 10SM CLR M09/M13 A3061 RMK AO2 SLP377 T10941128 11067 21094 53010
KLEX 211054Z 35004KT 10SM CLR M09/M13 A3059 RMK AO2 SLP373 T10891128
KLEX 210954Z 34003KT 10SM CLR M09/M13 A3058 RMK AO2 SLP366 T10891128
KLEX 210854Z 34004KT 10SM CLR M08/M13 A3057 RMK AO2 SLP364 T10831128 58003
KLEX 210754Z 36005KT 10SM CLR M08/M13 A3058 RMK AO2 SLP368 T10831128
KLEX 210654Z 35005KT 10SM CLR M08/M12 A3059 RMK AO2 SLP368 T10781122
KLEX 210554Z 35006KT 10SM CLR M07/M12 A3058 RMK AO2 SLP367 T10721122 11011 21072 51008
KLEX 210454Z 36010KT 10SM CLR M06/M12 A3058 RMK AO2 SLP368 T10611122 400441061
KLEX 210354Z 36010KT 10SM CLR M06/M12 A3057 RMK AO2 SLP364 T10561117
KLEX 210254Z 35009KT 10SM CLR M05/M11 A3056 RMK AO2 SLP360 T10501111 51024